Time;durP1;ratioP1;P1;durP2;ratioP2;P2;SDS_P1;SDS_P2;PMS_P1;PMS_P2;Temp;Humidity;BMP_temperature;BMP_pressure;BME280_temperature;BME280_humidity;BME280_pressure;Samples;Min_cycle;Max_cycle;Signal;HPM_P1;HPM_P2
2021/07/04 19:49:29;;;;;;;4.97;2.40;;;27.80;58.10;;;;;;5062264;28;20733;-72
2021/07/04 19:51:55;;;;;;;5.15;2.50;;;25.50;56.50;;;;;;5055033;28;20084;-68
2021/07/04 19:54:21;;;;;;;6.00;2.20;;;25.00;58.40;;;;;;5049974;28;20025;-70
2021/07/04 19:56:48;;;;;;;9.05;2.67;;;24.80;58.20;;;;;;5059182;28;20021;-63
2021/07/04 19:59:14;;;;;;;9.45;2.13;;;24.60;59.40;;;;;;5053854;28;20508;-66
2021/07/04 20:01:39;;;;;;;14.60;2.28;;;26.30;68.40;;;;;;5048961;28;20053;-68
2021/07/04 20:04:08;;;;;;;4.88;1.80;;;26.30;58.80;;;;;;5046809;28;20040;-62
2021/07/04 20:06:41;;;;;;;3.85;1.85;;;26.20;58.30;;;;;;5062142;28;23762;-67
2021/07/04 20:09:08;;;;;;;3.47;1.88;;;26.80;61.20;;;;;;5051507;28;20045;-64
2021/07/04 20:11:34;;;;;;;4.30;1.70;;;27.90;60.20;;;;;;5048502;28;20024;-70
2021/07/04 20:13:59;;;;;;;4.30;1.63;;;28.60;59.00;;;;;;5049325;28;20029;-74
2021/07/04 20:16:25;;;;;;;3.03;1.20;;;27.90;57.00;;;;;;5048935;28;20028;-65
2021/07/04 20:18:52;;;;;;;3.00;1.75;;;27.00;53.60;;;;;;5045652;28;20351;-61
2021/07/04 20:21:18;;;;;;;9.52;1.95;;;26.60;54.00;;;;;;5050537;28;20075;-64
2021/07/04 20:23:44;;;;;;;12.10;2.00;;;26.00;55.80;;;;;;5050107;28;20030;-75
2021/07/04 20:26:09;;;;;;;7.63;2.75;;;24.60;51.40;;;;;;5051542;28;20539;-79
2021/07/04 20:28:35;;;;;;;5.35;1.92;;;23.30;54.50;;;;;;5057315;28;20078;-76
2021/07/04 20:31:00;;;;;;;43.22;4.22;;;22.10;57.70;;;;;;5047652;28;20029;-76
2021/07/04 20:33:26;;;;;;;6.95;2.20;;;21.50;59.50;;;;;;5048296;28;20548;-77
2021/07/04 20:35:51;;;;;;;4.05;1.52;;;21.10;60.60;;;;;;5052208;28;20033;-74
2021/07/04 20:38:17;;;;;;;3.25;1.60;;;20.80;61.00;;;;;;5049009;28;20057;-75
2021/07/04 20:40:43;;;;;;;7.20;2.05;;;20.50;62.10;;;;;;5048809;28;20021;-92
2021/07/04 20:43:08;;;;;;;5.60;2.00;;;20.20;61.70;;;;;;5080333;28;20021;-85
2021/07/04 20:45:34;;;;;;;7.85;2.45;;;19.80;63.20;;;;;;5046648;28;20071;-85
2021/07/04 20:48:01;;;;;;;5.38;2.40;;;19.40;63.60;;;;;;5052430;28;20100;-89
2021/07/04 20:50:27;;;;;;;8.70;3.05;;;19.10;64.80;;;;;;5048794;28;20024;-85
2021/07/04 20:52:53;;;;;;;7.68;3.17;;;18.80;65.80;;;;;;5047412;28;20037;-86
2021/07/04 20:55:19;;;;;;;6.57;2.88;;;18.70;66.60;;;;;;5049765;28;20400;-87
2021/07/04 20:57:45;;;;;;;7.15;2.40;;;18.50;66.70;;;;;;5052794;28;20037;-90
2021/07/04 21:00:13;;;;;;;5.38;2.58;;;18.40;67.80;;;;;;5043712;28;20063;-87
2021/07/04 21:02:39;;;;;;;5.97;2.28;;;18.40;68.20;;;;;;5035259;28;20053;-91
2021/07/04 21:05:06;;;;;;;7.22;2.88;;;18.30;69.30;;;;;;5070147;28;20025;-86
2021/07/04 21:07:32;;;;;;;4.93;3.20;;;18.30;69.70;;;;;;5032693;28;20034;-91
2021/07/04 21:09:58;;;;;;;5.15;2.50;;;18.20;70.60;;;;;;5060902;28;20486;-93
2021/07/04 21:12:23;;;;;;;7.90;4.32;;;18.10;71.60;;;;;;5055401;28;20033;-86
2021/07/04 21:14:49;;;;;;;11.13;5.32;;;18.10;70.60;;;;;;5039127;28;20032;-92
2021/07/04 21:17:15;;;;;;;5.80;2.58;;;18.10;71.30;;;;;;5037877;28;20316;-93
2021/07/04 21:19:41;;;;;;;8.93;4.60;;;18.00;72.50;;;;;;5035706;28;20036;-90
2021/07/04 21:22:07;;;;;;;4.35;2.40;;;17.90;73.00;;;;;;5069651;28;20025;-94
2021/07/04 21:24:32;;;;;;;3.78;2.00;;;17.90;72.80;;;;;;5037010;28;20090;-89
2021/07/04 21:26:58;;;;;;;7.82;4.05;;;17.80;72.90;;;;;;5030631;28;20033;-85
2021/07/04 21:29:24;;;;;;;5.55;2.47;;;17.80;72.90;;;;;;5031021;28;20381;-83
2021/07/04 21:31:49;;;;;;;5.22;1.95;;;17.70;74.50;;;;;;5032083;28;20025;-92
2021/07/04 21:34:15;;;;;;;7.60;4.15;;;17.70;74.10;;;;;;5031406;28;20030;-88
2021/07/04 21:36:41;;;;;;;9.25;4.00;;;17.70;73.70;;;;;;5030052;28;20029;-83
2021/07/04 21:39:09;;;;;;;6.20;2.20;;;17.70;74.20;;;;;;5031581;28;20044;-85
2021/07/04 21:41:36;;;;;;;7.93;2.10;;;17.60;74.30;;;;;;5030123;28;20030;-84
2021/07/04 21:44:02;;;;;;;6.28;1.90;;;17.70;73.80;;;;;;5063308;28;20555;-84
2021/07/04 21:46:28;;;;;;;5.07;1.90;;;17.60;73.80;;;;;;5030212;28;20049;-88
2021/07/04 21:48:54;;;;;;;4.07;1.77;;;17.60;75.00;;;;;;5062370;28;20050;-87
2021/07/04 21:51:19;;;;;;;3.72;1.75;;;17.60;75.10;;;;;;5033139;28;20028;-87
2021/07/04 21:53:45;;;;;;;4.35;1.63;;;17.60;75.20;;;;;;5032828;28;20623;-87
2021/07/04 21:56:11;;;;;;;4.22;2.10;;;17.60;75.40;;;;;;5031417;28;20435;-88
2021/07/04 21:58:37;;;;;;;4.25;1.75;;;17.60;75.50;;;;;;5063624;28;20091;-88
2021/07/04 22:01:03;;;;;;;4.10;2.00;;;17.60;76.40;;;;;;5030062;28;20029;-88
2021/07/04 22:03:32;;;;;;;3.67;1.50;;;17.50;75.60;;;;;;5064074;28;20033;-87
2021/07/04 22:05:58;;;;;;;5.40;1.85;;;17.50;76.30;;;;;;5031479;28;20017;-83
2021/07/04 22:08:24;;;;;;;3.28;1.90;;;17.50;76.90;;;;;;5061452;28;20527;-83
2021/07/04 22:10:49;;;;;;;4.93;2.10;;;17.40;77.60;;;;;;5025582;28;20099;-83
2021/07/04 22:13:15;;;;;;;3.10;1.48;;;17.40;76.40;;;;;;5031031;28;20036;-83
2021/07/04 22:15:41;;;;;;;3.83;1.60;;;17.40;76.80;;;;;;5029193;28;20080;-83
2021/07/04 22:18:07;;;;;;;3.13;1.70;;;17.40;76.50;;;;;;5032905;28;20021;-83
2021/07/04 22:20:33;;;;;;;2.88;1.30;;;17.40;76.60;;;;;;5061594;28;20041;-82
2021/07/04 22:23:04;;;;;;;3.58;2.03;;;17.30;76.20;;;;;;5029726;28;20026;-82
2021/07/04 22:25:32;;;;;;;4.63;1.50;;;17.40;76.80;;;;;;5061044;28;20052;-82
2021/07/04 22:28:01;;;;;;;3.35;1.75;;;17.30;77.30;;;;;;5030775;28;20040;-82
2021/07/04 22:30:27;;;;;;;3.35;1.42;;;17.30;77.00;;;;;;5030048;28;20482;-82
2021/07/04 22:32:54;;;;;;;4.07;2.42;;;17.30;77.20;;;;;;5032516;28;20075;-82
2021/07/04 22:35:20;;;;;;;3.03;1.90;;;17.30;78.10;;;;;;5030743;28;20025;-83
2021/07/04 22:37:48;;;;;;;2.15;1.20;;;17.30;77.90;;;;;;5061365;28;20501;-83
2021/07/04 22:40:18;;;;;;;3.78;1.30;;;17.30;78.20;;;;;;5027347;28;20025;-82
2021/07/04 22:42:45;;;;;;;3.78;1.25;;;17.30;77.60;;;;;;5013101;28;20098;-85
2021/07/04 22:45:11;;;;;;;2.22;1.20;;;17.30;77.90;;;;;;5032750;28;20033;-82
2021/07/04 22:47:38;;;;;;;2.08;1.20;;;17.30;77.60;;;;;;5027616;28;20133;-84
2021/07/04 22:50:12;;;;;;;3.40;1.40;;;17.30;77.50;;;;;;5060813;28;20033;-84
2021/07/04 22:52:38;;;;;;;3.60;1.13;;;17.20;77.20;;;;;;5028895;28;20025;-84
2021/07/04 22:55:06;;;;;;;3.15;1.35;;;17.20;77.80;;;;;;5028808;28;20026;-87
2021/07/04 22:57:31;;;;;;;3.40;1.20;;;17.20;78.00;;;;;;5029112;28;20520;-87
2021/07/04 22:59:57;;;;;;;2.65;1.23;;;17.20;78.60;;;;;;5030953;28;20021;-87
2021/07/04 23:02:23;;;;;;;2.78;1.30;;;17.20;77.90;;;;;;5061843;28;20052;-87
2021/07/04 23:04:49;;;;;;;2.08;1.00;;;17.20;77.60;;;;;;5030154;28;20032;-87
2021/07/04 23:07:15;;;;;;;3.10;1.20;;;17.20;77.90;;;;;;5061038;28;20036;-87
2021/07/04 23:09:40;;;;;;;2.65;1.08;;;17.20;77.70;;;;;;5029716;28;20511;-84
2021/07/04 23:12:06;;;;;;;1.90;1.10;;;17.20;78.20;;;;;;5064033;28;20495;-86
2021/07/04 23:14:32;;;;;;;1.83;1.00;;;17.20;77.90;;;;;;5061841;28;20575;-87
2021/07/04 23:16:58;;;;;;;3.20;1.27;;;17.20;77.80;;;;;;5060449;28;20061;-87
2021/07/04 23:19:27;;;;;;;3.78;0.98;;;17.20;77.50;;;;;;5028611;28;20026;-83
2021/07/04 23:21:53;;;;;;;3.47;1.30;;;17.10;79.10;;;;;;5028358;28;20026;-83
2021/07/04 23:24:19;;;;;;;3.22;0.93;;;17.20;78.10;;;;;;5030713;28;20033;-83
2021/07/04 23:26:46;;;;;;;2.85;0.90;;;17.20;78.80;;;;;;5029414;28;20144;-86
2021/07/04 23:29:12;;;;;;;2.10;1.00;;;17.10;78.10;;;;;;5060619;28;20390;-85
2021/07/04 23:31:38;;;;;;;2.60;1.25;;;17.10;78.30;;;;;;5028457;28;20032;-85
2021/07/04 23:34:03;;;;;;;2.38;1.00;;;17.10;78.30;;;;;;5029658;28;20030;-84
2021/07/04 23:36:29;;;;;;;2.35;1.20;;;17.10;79.10;;;;;;5029776;28;20025;-85
2021/07/04 23:38:55;;;;;;;2.28;1.20;;;17.10;78.50;;;;;;5031424;28;20378;-84
2021/07/04 23:41:21;;;;;;;1.90;1.05;;;17.10;78.50;;;;;;5029627;28;20025;-84
2021/07/04 23:43:46;;;;;;;3.90;1.58;;;17.10;78.40;;;;;;5028455;28;20109;-84
2021/07/04 23:46:12;;;;;;;2.47;1.23;;;17.10;78.10;;;;;;5029543;28;20540;-84
2021/07/04 23:48:38;;;;;;;1.67;1.10;;;17.10;78.90;;;;;;5027921;28;20042;-84
2021/07/04 23:51:03;;;;;;;2.20;1.02;;;17.10;78.70;;;;;;5030820;28;20026;-84
2021/07/04 23:53:29;;;;;;;2.40;1.05;;;17.10;78.50;;;;;;5060981;28;20099;-85
2021/07/04 23:55:54;;;;;;;3.17;1.00;;;17.10;78.60;;;;;;5027008;28;20502;-84
2021/07/04 23:58:20;;;;;;;2.75;1.30;;;17.10;78.80;;;;;;5060164;28;20116;-84
